Time;durP1;ratioP1;P1;durP2;ratioP2;P2;SDS_P1;SDS_P2;PMS_P1;PMS_P2;Temp;Humidity;BMP_temperature;BMP_pressure;BME280_temperature;BME280_humidity;BME280_pressure;Samples;Min_cycle;Max_cycle;Signal;HPM_P1;HPM_P2
2022/11/30 00:00:53;;;;;;;55.08;32.67;;;;;;;;;;4998405;28;20038;-75
2022/11/30 00:03:19;;;;;;;58.90;33.67;;;;;;;;;;4997789;28;20817;-77
2022/11/30 00:05:45;;;;;;;55.42;33.33;;;;;;;;;;4998015;28;20054;-75
2022/11/30 00:08:11;;;;;;;54.20;30.98;;;;;;;;;;4999417;28;20042;-75
2022/11/30 00:10:38;;;;;;;61.05;33.38;;;;;;;;;;5007670;28;20552;-75
2022/11/30 00:13:04;;;;;;;55.03;31.63;;;;;;;;;;5001209;28;20132;-75
2022/11/30 00:15:30;;;;;;;57.20;33.42;;;;;;;;;;5002364;28;20196;-75
2022/11/30 00:17:56;;;;;;;63.53;33.75;;;;;;;;;;5000913;28;20497;-75
2022/11/30 00:20:23;;;;;;;66.55;35.20;;;;;;;;;;4996822;28;20084;-75
2022/11/30 00:22:49;;;;;;;63.67;33.63;;;;;;;;;;4999142;28;20158;-75
2022/11/30 00:25:15;;;;;;;65.90;35.38;;;;;;;;;;4998801;28;20056;-75
2022/11/30 00:27:41;;;;;;;65.97;33.83;;;;;;;;;;4999062;28;20120;-75
2022/11/30 00:30:07;;;;;;;66.45;35.50;;;;;;;;;;5000303;28;20592;-76
2022/11/30 00:32:33;;;;;;;62.60;34.22;;;;;;;;;;5000414;28;20055;-76
2022/11/30 00:34:59;;;;;;;64.45;33.30;;;;;;;;;;4998112;28;21934;-75
2022/11/30 00:37:26;;;;;;;67.32;33.58;;;;;;;;;;4999546;28;20049;-75
2022/11/30 00:39:52;;;;;;;59.83;31.63;;;;;;;;;;4997393;28;20160;-75
2022/11/30 00:42:18;;;;;;;66.68;33.90;;;;;;;;;;4982666;28;20131;-75
2022/11/30 00:44:44;;;;;;;61.13;34.22;;;;;;;;;;5000057;28;20486;-75
2022/11/30 00:47:10;;;;;;;57.97;32.95;;;;;;;;;;4998946;28;20045;-75
2022/11/30 00:49:36;;;;;;;63.10;33.67;;;;;;;;;;4985979;28;20497;-75
2022/11/30 00:52:03;;;;;;;61.63;32.88;;;;;;;;;;4996285;28;20056;-75
2022/11/30 00:54:29;;;;;;;67.78;34.97;;;;;;;;;;4998235;28;20060;-76
2022/11/30 00:56:55;;;;;;;69.13;34.38;;;;;;;;;;4981889;28;20136;-75
2022/11/30 00:59:21;;;;;;;69.53;34.50;;;;;;;;;;4996091;28;20502;-76
2022/11/30 01:01:47;;;;;;;67.93;34.35;;;;;;;;;;4995845;28;20038;-76
2022/11/30 01:04:13;;;;;;;70.50;35.83;;;;;;;;;;4979724;28;20038;-76
2022/11/30 01:06:39;;;;;;;68.43;33.63;;;;;;;;;;4997329;28;20049;-76
2022/11/30 01:09:05;;;;;;;68.53;34.10;;;;;;;;;;4998872;28;20053;-75
2022/11/30 01:11:31;;;;;;;70.82;33.78;;;;;;;;;;4983991;28;20060;-76
2022/11/30 01:13:59;;;;;;;72.57;34.75;;;;;;;;;;5000350;28;20096;-76
2022/11/30 01:16:29;;;;;;;70.82;34.70;;;;;;;;;;4995135;28;20080;-75
2022/11/30 01:18:55;;;;;;;72.20;32.75;;;;;;;;;;4998643;28;20119;-76
2022/11/30 01:21:23;;;;;;;64.18;32.00;;;;;;;;;;4998950;28;20658;-76
2022/11/30 01:23:49;;;;;;;64.68;32.55;;;;;;;;;;4996553;28;20048;-76
2022/11/30 01:26:16;;;;;;;62.13;32.55;;;;;;;;;;4985055;28;20045;-76
2022/11/30 01:28:45;;;;;;;58.47;30.08;;;;;;;;;;4998256;28;20137;-76
2022/11/30 01:31:12;;;;;;;63.65;31.02;;;;;;;;;;4984352;28;20494;-76
2022/11/30 01:33:38;;;;;;;60.92;32.13;;;;;;;;;;4998885;28;20052;-75
2022/11/30 01:36:12;;;;;;;65.78;33.10;;;;;;;;;;5000952;28;20049;-76
2022/11/30 01:38:38;;;;;;;;;;;;;;;;;;4997321;28;20175;-76
2022/11/30 01:41:05;;;;;;;69.30;32.60;;;;;;;;;;4994671;28;19935;-76
2022/11/30 01:43:46;;;;;;;66.60;31.85;;;;;;;;;;4996091;28;20614;-75
2022/11/30 01:46:31;;;;;;;68.53;31.65;;;;;;;;;;4977057;28;20041;-76
2022/11/30 01:49:00;;;;;;;65.57;32.33;;;;;;;;;;4996515;28;20045;-76
2022/11/30 01:51:29;;;;;;;61.85;30.95;;;;;;;;;;5002176;28;20049;-76
2022/11/30 01:53:55;;;;;;;65.57;33.22;;;;;;;;;;4997870;28;20497;-76
2022/11/30 01:56:21;;;;;;;68.40;32.72;;;;;;;;;;4999077;28;20052;-76
2022/11/30 01:58:47;;;;;;;67.22;33.35;;;;;;;;;;4999231;28;20041;-76
2022/11/30 02:01:13;;;;;;;65.38;32.15;;;;;;;;;;4982870;28;20498;-76
2022/11/30 02:03:49;;;;;;;73.90;33.15;;;;;;;;;;4998124;28;20466;-76
2022/11/30 02:06:15;;;;;;;69.07;32.47;;;;;;;;;;4980848;28;20049;-76
2022/11/30 02:08:42;;;;;;;63.60;31.60;;;;;;;;;;4999137;28;20056;-76
2022/11/30 02:11:11;;;;;;;70.32;32.83;;;;;;;;;;4996602;28;20049;-76
2022/11/30 02:13:40;;;;;;;72.45;31.70;;;;;;;;;;4998052;28;20631;-76
2022/11/30 02:16:12;;;;;;;68.47;31.83;;;;;;;;;;4997720;28;21980;-76
2022/11/30 02:18:38;;;;;;;70.10;32.05;;;;;;;;;;4983776;28;20037;-76
2022/11/30 02:21:18;;;;;;;60.90;31.63;;;;;;;;;;4996673;28;20045;-75
2022/11/30 02:23:56;;;;;;;72.80;32.22;;;;;;;;;;4997345;28;20045;-76
2022/11/30 02:26:41;;;;;;;67.07;31.50;;;;;;;;;;4995789;28;22204;-76
2022/11/30 02:29:18;;;;;;;72.50;33.53;;;;;;;;;;4992719;28;20173;-76
2022/11/30 02:31:56;;;;;;;69.32;33.00;;;;;;;;;;4993748;28;20077;-76
2022/11/30 02:34:25;;;;;;;67.63;31.13;;;;;;;;;;4992145;28;20041;-76
2022/11/30 02:36:52;;;;;;;71.22;30.50;;;;;;;;;;4993629;28;21791;-76
2022/11/30 02:39:19;;;;;;;68.07;30.75;;;;;;;;;;4996088;28;20183;-76
2022/11/30 02:41:45;;;;;;;71.35;30.45;;;;;;;;;;4995225;28;20100;-76
2022/11/30 02:44:12;;;;;;;73.97;31.73;;;;;;;;;;4977390;28;20037;-76
2022/11/30 02:46:54;;;;;;;74.22;31.73;;;;;;;;;;4981473;28;20045;-76
2022/11/30 02:49:43;;;;;;;71.70;31.02;;;;;;;;;;4995151;28;20570;-76
2022/11/30 02:52:10;;;;;;;73.85;31.27;;;;;;;;;;4989027;28;20072;-76
2022/11/30 02:54:36;;;;;;;72.53;31.90;;;;;;;;;;4993176;28;20041;-76
2022/11/30 02:57:02;;;;;;;72.82;32.70;;;;;;;;;;4981652;28;20046;-76
2022/11/30 02:59:28;;;;;;;73.75;32.55;;;;;;;;;;4995362;28;20042;-76
2022/11/30 03:01:55;;;;;;;68.15;31.73;;;;;;;;;;4992471;28;20095;-76
2022/11/30 03:04:21;;;;;;;65.90;31.52;;;;;;;;;;4977685;28;20815;-76
2022/11/30 03:06:47;;;;;;;74.32;31.85;;;;;;;;;;4993132;28;20050;-76
2022/11/30 03:09:13;;;;;;;69.97;32.38;;;;;;;;;;4996718;28;20553;-76
2022/11/30 03:11:39;;;;;;;71.28;31.42;;;;;;;;;;4997663;28;20140;-76
2022/11/30 03:14:06;;;;;;;64.00;30.10;;;;;;;;;;4996689;28;20117;-76
2022/11/30 03:16:32;;;;;;;68.45;30.30;;;;;;;;;;4998009;28;20056;-76
2022/11/30 03:18:58;;;;;;;70.25;30.83;;;;;;;;;;4997465;28;20052;-76
2022/11/30 03:21:25;;;;;;;70.18;30.67;;;;;;;;;;4983747;28;20036;-75
2022/11/30 03:23:51;;;;;;;69.18;30.70;;;;;;;;;;4997964;28;20045;-76
2022/11/30 03:26:17;;;;;;;71.07;32.50;;;;;;;;;;4987039;28;20517;-76
2022/11/30 03:28:43;;;;;;;71.50;31.38;;;;;;;;;;4994349;28;20081;-75
2022/11/30 03:31:12;;;;;;;64.05;31.70;;;;;;;;;;4995927;28;20038;-76
2022/11/30 03:33:42;;;;;;;61.25;30.13;;;;;;;;;;4982543;28;20045;-76
2022/11/30 03:36:09;;;;;;;63.80;31.42;;;;;;;;;;4997349;28;20414;-75
2022/11/30 03:38:36;;;;;;;65.97;31.27;;;;;;;;;;4993535;28;20041;-76
2022/11/30 03:41:13;;;;;;;68.43;30.70;;;;;;;;;;4995195;28;20045;-76
2022/11/30 03:43:39;;;;;;;61.72;29.80;;;;;;;;;;4994822;28;20045;-75
2022/11/30 03:46:05;;;;;;;67.57;29.48;;;;;;;;;;4995605;28;20050;-76
2022/11/30 03:48:31;;;;;;;66.82;31.08;;;;;;;;;;4993758;28;20494;-76
2022/11/30 03:50:57;;;;;;;66.85;30.85;;;;;;;;;;4996000;28;20442;-76
2022/11/30 03:53:24;;;;;;;62.97;29.70;;;;;;;;;;4994022;28;20041;-76
2022/11/30 03:55:54;;;;;;;64.45;29.90;;;;;;;;;;4997080;28;20168;-76
2022/11/30 03:58:20;;;;;;;70.63;30.23;;;;;;;;;;4998430;28;20181;-76
2022/11/30 04:00:46;;;;;;;72.63;31.35;;;;;;;;;;5000611;28;20038;-76
2022/11/30 04:03:12;;;;;;;68.03;31.42;;;;;;;;;;4987408;28;20075;-76
2022/11/30 04:05:38;;;;;;;78.88;33.22;;;;;;;;;;4995816;28;20049;-76
2022/11/30 04:08:04;;;;;;;74.82;32.70;;;;;;;;;;4998891;28;20049;-76
2022/11/30 04:10:31;;;;;;;86.28;35.53;;;;;;;;;;4978523;28;20063;-76
2022/11/30 04:12:57;;;;;;;79.75;33.58;;;;;;;;;;4980517;28;20049;-76
2022/11/30 04:15:23;;;;;;;80.35;33.38;;;;;;;;;;4996494;28;20045;-76
2022/11/30 04:17:49;;;;;;;85.55;34.45;;;;;;;;;;4960698;28;20046;-76
2022/11/30 04:20:15;;;;;;;76.63;31.88;;;;;;;;;;4995218;28;20545;-76
2022/11/30 04:22:41;;;;;;;80.10;33.33;;;;;;;;;;4998497;28;20041;-76
2022/11/30 04:25:07;;;;;;;84.18;34.65;;;;;;;;;;5006768;28;20045;-76
2022/11/30 04:27:33;;;;;;;80.47;33.95;;;;;;;;;;4985359;28;20037;-76
2022/11/30 04:29:59;;;;;;;77.18;32.45;;;;;;;;;;4999463;28;20050;-76
2022/11/30 04:32:25;;;;;;;83.28;35.35;;;;;;;;;;4999248;28;20041;-76
2022/11/30 04:34:51;;;;;;;82.88;33.88;;;;;;;;;;4981563;28;20079;-76
2022/11/30 04:37:17;;;;;;;88.63;35.80;;;;;;;;;;4990494;28;20137;-76
2022/11/30 04:39:43;;;;;;;95.40;35.63;;;;;;;;;;4998510;28;20176;-76
2022/11/30 04:42:09;;;;;;;88.95;35.33;;;;;;;;;;4998248;28;20041;-76
2022/11/30 04:44:35;;;;;;;101.55;34.92;;;;;;;;;;4998584;28;20045;-76
2022/11/30 04:47:01;;;;;;;93.97;34.72;;;;;;;;;;4985690;28;20143;-76
2022/11/30 04:49:28;;;;;;;94.50;37.55;;;;;;;;;;5000552;28;20136;-76
2022/11/30 04:51:54;;;;;;;89.50;36.70;;;;;;;;;;4989585;28;20481;-76
2022/11/30 04:54:20;;;;;;;81.47;33.45;;;;;;;;;;5006300;28;20045;-76
2022/11/30 04:56:46;;;;;;;79.30;32.75;;;;;;;;;;4998364;28;20045;-76
2022/11/30 04:59:12;;;;;;;88.22;33.75;;;;;;;;;;4982944;28;20103;-76
2022/11/30 05:01:38;;;;;;;98.93;35.05;;;;;;;;;;4982289;28;20056;-76
2022/11/30 05:04:04;;;;;;;81.80;33.38;;;;;;;;;;4983605;28;20068;-76
2022/11/30 05:06:30;;;;;;;72.82;31.55;;;;;;;;;;5001377;28;20053;-76
2022/11/30 05:08:56;;;;;;;67.97;30.25;;;;;;;;;;4987710;28;20058;-76
2022/11/30 05:11:22;;;;;;;65.85;30.13;;;;;;;;;;4996916;28;20068;-76
2022/11/30 05:13:48;;;;;;;63.30;28.40;;;;;;;;;;4981584;28;21144;-76
2022/11/30 05:16:14;;;;;;;52.80;26.85;;;;;;;;;;4998488;28;20038;-76
2022/11/30 05:18:40;;;;;;;49.97;25.90;;;;;;;;;;4995498;28;20044;-76
2022/11/30 05:21:06;;;;;;;46.42;24.52;;;;;;;;;;4983337;28;20076;-76
2022/11/30 05:23:32;;;;;;;43.33;23.05;;;;;;;;;;4997414;28;20095;-77
2022/11/30 05:26:01;;;;;;;33.05;20.77;;;;;;;;;;4996814;28;20417;-76
2022/11/30 05:28:27;;;;;;;30.42;19.30;;;;;;;;;;4997495;28;20051;-76
2022/11/30 05:30:53;;;;;;;30.38;18.95;;;;;;;;;;4997644;28;20231;-76
2022/11/30 05:33:19;;;;;;;32.67;20.17;;;;;;;;;;4998249;28;20076;-76
2022/11/30 05:35:45;;;;;;;34.97;21.10;;;;;;;;;;4996598;28;20461;-76
2022/11/30 05:38:11;;;;;;;34.08;20.77;;;;;;;;;;4995369;28;20100;-76
2022/11/30 05:40:37;;;;;;;32.90;19.25;;;;;;;;;;4998481;28;20131;-76
2022/11/30 05:43:04;;;;;;;33.85;20.45;;;;;;;;;;4993075;28;20049;-75
2022/11/30 05:45:30;;;;;;;32.22;20.38;;;;;;;;;;4997067;28;20041;-75
2022/11/30 05:47:56;;;;;;;29.33;20.05;;;;;;;;;;4997467;28;20048;-75
2022/11/30 05:50:22;;;;;;;29.10;19.38;;;;;;;;;;5002280;28;20045;-76
2022/11/30 05:52:48;;;;;;;28.25;18.95;;;;;;;;;;4983079;28;20156;-75
2022/11/30 05:55:14;;;;;;;28.92;18.38;;;;;;;;;;4981940;28;20107;-75
2022/11/30 05:57:41;;;;;;;26.90;18.75;;;;;;;;;;4984139;28;20068;-74
2022/11/30 06:00:08;;;;;;;25.05;17.98;;;;;;;;;;4998697;28;20046;-77
2022/11/30 06:02:34;;;;;;;26.75;17.23;;;;;;;;;;5000826;28;20923;-78
2022/11/30 06:05:00;;;;;;;27.88;18.35;;;;;;;;;;5000428;28;20034;-75
2022/11/30 06:07:26;;;;;;;28.40;18.00;;;;;;;;;;5002226;28;21738;-75
2022/11/30 06:09:52;;;;;;;26.80;18.05;;;;;;;;;;5000064;28;20142;-75
2022/11/30 06:12:19;;;;;;;26.38;19.05;;;;;;;;;;5007195;28;20162;-76
2022/11/30 06:14:45;;;;;;;27.25;19.52;;;;;;;;;;5001713;28;20050;-76
2022/11/30 06:17:11;;;;;;;29.58;18.75;;;;;;;;;;4986909;28;20561;-75
2022/11/30 06:19:37;;;;;;;33.67;20.48;;;;;;;;;;5001572;28;20045;-75
2022/11/30 06:22:03;;;;;;;32.17;20.98;;;;;;;;;;4999985;28;20048;-75
2022/11/30 06:24:29;;;;;;;32.47;20.17;;;;;;;;;;4990196;28;20046;-77
2022/11/30 06:26:55;;;;;;;35.13;21.60;;;;;;;;;;5001195;28;20152;-75
2022/11/30 06:29:21;;;;;;;32.92;22.25;;;;;;;;;;4995187;28;20050;-76
2022/11/30 06:31:47;;;;;;;33.17;21.48;;;;;;;;;;5001013;28;20064;-76
2022/11/30 06:34:13;;;;;;;37.33;21.50;;;;;;;;;;5001787;28;20057;-75
2022/11/30 06:36:39;;;;;;;35.10;21.38;;;;;;;;;;4987608;28;20045;-76
2022/11/30 06:39:05;;;;;;;36.20;23.02;;;;;;;;;;5005326;28;20037;-76
2022/11/30 06:41:31;;;;;;;40.28;23.15;;;;;;;;;;5003788;28;20132;-76
2022/11/30 06:43:58;;;;;;;38.83;22.13;;;;;;;;;;5002843;28;20098;-76
2022/11/30 06:46:25;;;;;;;38.90;23.15;;;;;;;;;;4984631;28;20067;-76
2022/11/30 06:48:51;;;;;;;43.40;24.08;;;;;;;;;;5000700;28;20098;-76
2022/11/30 06:51:18;;;;;;;43.05;24.58;;;;;;;;;;5002653;28;20048;-76
2022/11/30 06:53:44;;;;;;;45.10;24.85;;;;;;;;;;5003436;28;20513;-75
2022/11/30 06:56:11;;;;;;;42.42;24.73;;;;;;;;;;5004832;28;20547;-76
2022/11/30 06:58:40;;;;;;;41.38;24.35;;;;;;;;;;5004271;28;20125;-76
2022/11/30 07:01:07;;;;;;;46.58;25.00;;;;;;;;;;5005146;28;20049;-77
2022/11/30 07:03:34;;;;;;;47.33;26.33;;;;;;;;;;5003152;28;20098;-76
2022/11/30 07:06:00;;;;;;;48.10;25.95;;;;;;;;;;5002632;28;20948;-75
2022/11/30 07:08:26;;;;;;;47.00;25.63;;;;;;;;;;5002837;28;20042;-76
2022/11/30 07:10:52;;;;;;;51.47;25.63;;;;;;;;;;5000272;28;20057;-76
2022/11/30 07:13:18;;;;;;;49.95;26.77;;;;;;;;;;4999021;28;20081;-76
2022/11/30 07:15:44;;;;;;;52.85;26.98;;;;;;;;;;5002538;28;20048;-75
2022/11/30 07:18:11;;;;;;;49.83;26.38;;;;;;;;;;5004370;28;20053;-76
2022/11/30 07:20:37;;;;;;;51.13;26.13;;;;;;;;;;5000369;28;20047;-76
2022/11/30 07:26:05;;;;;;;51.65;26.13;;;;;;;;;;5004533;28;20379;-76
2022/11/30 07:28:31;;;;;;;57.58;28.20;;;;;;;;;;5004324;28;20190;-76
2022/11/30 07:30:57;;;;;;;62.25;28.35;;;;;;;;;;4996618;28;20045;-76
2022/11/30 07:33:23;;;;;;;66.32;30.77;;;;;;;;;;5008006;28;20037;-76
2022/11/30 07:35:49;;;;;;;57.10;28.13;;;;;;;;;;5008634;28;20041;-77
2022/11/30 07:38:15;;;;;;;51.30;27.30;;;;;;;;;;5008128;28;20052;-77
2022/11/30 07:40:41;;;;;;;56.58;28.30;;;;;;;;;;4992967;28;20041;-77
2022/11/30 07:43:07;;;;;;;57.20;28.10;;;;;;;;;;5005857;28;20050;-75
2022/11/30 07:45:34;;;;;;;61.38;27.48;;;;;;;;;;4989443;28;20038;-75
2022/11/30 07:48:00;;;;;;;57.78;28.63;;;;;;;;;;5011611;28;20092;-75
2022/11/30 07:50:26;;;;;;;61.63;28.00;;;;;;;;;;5006298;28;20404;-78
2022/11/30 07:52:52;;;;;;;61.13;29.92;;;;;;;;;;5005757;28;20049;-75
2022/11/30 07:55:21;;;;;;;61.13;30.52;;;;;;;;;;4988367;28;20056;-75
2022/11/30 07:57:47;;;;;;;63.67;31.45;;;;;;;;;;4992225;28;20481;-75
2022/11/30 08:00:14;;;;;;;64.05;30.23;;;;;;;;;;5006906;28;20042;-75
2022/11/30 08:02:40;;;;;;;66.32;31.58;;;;;;;;;;4989915;28;20130;-75
2022/11/30 08:05:06;;;;;;;63.53;30.83;;;;;;;;;;5010654;28;20069;-75
2022/11/30 08:07:32;;;;;;;64.22;31.67;;;;;;;;;;5005516;28;20069;-77
2022/11/30 08:09:58;;;;;;;66.35;31.95;;;;;;;;;;4989109;28;20087;-77
2022/11/30 08:12:24;;;;;;;62.58;31.10;;;;;;;;;;5002768;28;20057;-76
2022/11/30 08:14:50;;;;;;;65.18;31.95;;;;;;;;;;5005361;28;20046;-76
2022/11/30 08:17:17;;;;;;;66.30;32.28;;;;;;;;;;5010702;28;20153;-76
2022/11/30 08:19:43;;;;;;;59.15;31.33;;;;;;;;;;5004299;28;20624;-76
2022/11/30 08:22:09;;;;;;;54.83;31.67;;;;;;;;;;5006113;28;22024;-75
2022/11/30 08:24:35;;;;;;;59.42;30.13;;;;;;;;;;4974664;28;20041;-77
2022/11/30 08:27:01;;;;;;;59.55;29.98;;;;;;;;;;5005205;28;20050;-76
2022/11/30 08:29:27;;;;;;;56.95;30.15;;;;;;;;;;5002284;28;20083;-76
2022/11/30 08:31:54;;;;;;;57.15;30.65;;;;;;;;;;5002936;28;20041;-75
2022/11/30 08:34:20;;;;;;;65.88;31.77;;;;;;;;;;5007068;28;21984;-77
2022/11/30 08:36:46;;;;;;;60.90;32.15;;;;;;;;;;4993275;28;20050;-77
2022/11/30 08:39:12;;;;;;;58.28;31.13;;;;;;;;;;5004312;28;20072;-78
2022/11/30 08:41:38;;;;;;;61.08;32.13;;;;;;;;;;5003198;28;20710;-78
2022/11/30 08:44:05;;;;;;;61.22;32.42;;;;;;;;;;5006274;28;20128;-74
2022/11/30 08:46:31;;;;;;;60.20;31.90;;;;;;;;;;5007279;28;20114;-75
2022/11/30 08:48:57;;;;;;;56.72;30.40;;;;;;;;;;5007635;28;20046;-75
2022/11/30 08:51:23;;;;;;;58.42;30.15;;;;;;;;;;5006324;28;20107;-75
2022/11/30 08:53:50;;;;;;;55.28;29.92;;;;;;;;;;5005892;28;20044;-75
2022/11/30 08:56:17;;;;;;;57.72;30.05;;;;;;;;;;5005489;28;20511;-75
2022/11/30 08:58:43;;;;;;;62.35;32.53;;;;;;;;;;5004910;28;20765;-75
2022/11/30 09:01:09;;;;;;;58.30;31.17;;;;;;;;;;5011215;28;20162;-75
2022/11/30 09:03:36;;;;;;;58.55;31.45;;;;;;;;;;5006989;28;20397;-75
2022/11/30 09:06:07;;;;;;;56.33;29.83;;;;;;;;;;5005055;28;20084;-75
2022/11/30 09:08:33;;;;;;;55.10;30.77;;;;;;;;;;5003164;28;20082;-75
2022/11/30 09:11:07;;;;;;;56.83;30.55;;;;;;;;;;4984067;28;20107;-74
2022/11/30 09:13:33;;;;;;;56.22;30.05;;;;;;;;;;5004929;28;20124;-75
2022/11/30 09:15:59;;;;;;;58.28;30.00;;;;;;;;;;5002851;28;20124;-75
2022/11/30 09:18:28;;;;;;;58.25;30.27;;;;;;;;;;4993848;28;20426;-77
2022/11/30 09:20:58;;;;;;;52.05;29.67;;;;;;;;;;5007492;28;20052;-75
2022/11/30 09:23:24;;;;;;;52.88;30.58;;;;;;;;;;5005331;28;20073;-74
2022/11/30 09:25:54;;;;;;;61.00;31.85;;;;;;;;;;5001783;28;20042;-75
2022/11/30 09:28:20;;;;;;;57.65;32.03;;;;;;;;;;4992392;28;20081;-74
2022/11/30 09:30:46;;;;;;;58.30;30.98;;;;;;;;;;5003034;28;20041;-75
2022/11/30 09:33:13;;;;;;;59.47;32.92;;;;;;;;;;4993171;28;20041;-75
2022/11/30 09:35:39;;;;;;;64.45;33.15;;;;;;;;;;4989535;28;20057;-75
2022/11/30 09:38:05;;;;;;;61.60;32.83;;;;;;;;;;5004035;28;20050;-75
2022/11/30 09:40:31;;;;;;;66.00;33.83;;;;;;;;;;5009882;28;20518;-76
2022/11/30 09:43:03;;;;;;;63.00;33.67;;;;;;;;;;4986207;28;20096;-75
2022/11/30 09:45:30;;;;;;;58.47;31.95;;;;;;;;;;4992339;28;22310;-75
2022/11/30 09:47:57;;;;;;;63.28;31.65;;;;;;;;;;5005785;28;20056;-75
2022/11/30 09:50:25;;;;;;;55.90;30.80;;;;;;;;;;5006099;28;20045;-75
2022/11/30 09:52:53;;;;;;;59.95;31.92;;;;;;;;;;5005849;28;20305;-76
2022/11/30 09:55:27;;;;;;;68.72;34.47;;;;;;;;;;5001585;28;20958;-75
2022/11/30 09:57:59;;;;;;;61.13;31.65;;;;;;;;;;5004022;28;20053;-75
2022/11/30 10:00:25;;;;;;;64.88;32.80;;;;;;;;;;5003559;28;20498;-75
2022/11/30 10:02:53;;;;;;;67.35;35.13;;;;;;;;;;5005016;28;20041;-75
2022/11/30 10:05:28;;;;;;;70.32;35.40;;;;;;;;;;5007106;28;20041;-75
2022/11/30 10:07:57;;;;;;;68.43;35.45;;;;;;;;;;5006356;28;20107;-76
2022/11/30 10:10:26;;;;;;;66.63;35.55;;;;;;;;;;5004877;28;20065;-75
2022/11/30 10:13:15;;;;;;;65.22;34.20;;;;;;;;;;5005088;28;20064;-75
2022/11/30 10:15:56;;;;;;;62.22;34.08;;;;;;;;;;4999609;28;20052;-75
2022/11/30 10:18:58;;;;;;;64.28;32.90;;;;;;;;;;5007164;28;20140;-76
2022/11/30 10:21:29;;;;;;;64.95;34.80;;;;;;;;;;4956974;28;20041;-75
2022/11/30 10:23:56;;;;;;;64.88;35.92;;;;;;;;;;5001824;28;20046;-75
2022/11/30 10:26:37;;;;;;;67.05;36.20;;;;;;;;;;5004437;28;20042;-75
2022/11/30 10:29:21;;;;;;;70.68;36.05;;;;;;;;;;5005946;28;20045;-75
2022/11/30 10:31:50;;;;;;;60.88;35.22;;;;;;;;;;5004251;28;20033;-75
2022/11/30 10:34:20;;;;;;;66.35;36.00;;;;;;;;;;5005621;28;20041;-75
2022/11/30 10:37:11;;;;;;;62.45;35.08;;;;;;;;;;5001680;28;20053;-76
2022/11/30 10:39:46;;;;;;;69.53;36.85;;;;;;;;;;4998692;28;20059;-75
2022/11/30 10:42:15;;;;;;;61.85;35.13;;;;;;;;;;5007854;28;20050;-75
2022/11/30 10:44:45;;;;;;;57.90;32.75;;;;;;;;;;5007855;28;21948;-75
2022/11/30 10:47:14;;;;;;;56.50;32.28;;;;;;;;;;5003924;28;20061;-75
2022/11/30 10:49:44;;;;;;;53.17;32.45;;;;;;;;;;4995641;28;20145;-76
2022/11/30 10:52:11;;;;;;;56.40;31.85;;;;;;;;;;5005782;28;20072;-76
2022/11/30 10:54:37;;;;;;;56.20;33.10;;;;;;;;;;5003669;28;20457;-77
2022/11/30 10:57:05;;;;;;;63.03;33.97;;;;;;;;;;5005024;28;20042;-77
2022/11/30 10:59:42;;;;;;;61.70;34.83;;;;;;;;;;5005307;28;20162;-77
2022/11/30 11:02:26;;;;;;;64.90;35.10;;;;;;;;;;5002622;28;20046;-77
2022/11/30 11:05:07;;;;;;;64.72;35.50;;;;;;;;;;5004682;28;20046;-76
2022/11/30 11:07:33;;;;;;;64.70;37.67;;;;;;;;;;5005135;28;20090;-77
2022/11/30 11:10:01;;;;;;;62.90;37.10;;;;;;;;;;4989282;28;20053;-77
2022/11/30 11:12:29;;;;;;;61.67;36.67;;;;;;;;;;5007192;28;20050;-76
2022/11/30 11:15:19;;;;;;;65.75;37.05;;;6.60;99.90;;;;;;5007834;28;20142;-77
2022/11/30 11:17:45;;;;;;;68.13;36.92;;;;;;;;;;5005441;28;20054;-77
2022/11/30 11:20:31;;;;;;;64.22;36.70;;;;;;;;;;4988278;28;20071;-76
2022/11/30 11:22:57;;;;;;;57.90;34.35;;;;;;;;;;5007624;28;20069;-76
2022/11/30 11:25:32;;;;;;;55.35;32.42;;;;;;;;;;5008872;28;20052;-77
2022/11/30 11:28:03;;;;;;;51.83;31.17;;;;;;;;;;5007353;28;20080;-76
2022/11/30 11:30:30;;;;;;;52.13;31.15;;;;;;;;;;4991918;28;20091;-76
2022/11/30 11:33:00;;;;;;;50.65;30.20;;;;;;;;;;5005618;28;20056;-77
2022/11/30 11:35:38;;;;;;;57.72;31.10;;;;;;;;;;4987010;28;20080;-76
2022/11/30 11:38:17;;;;;;;54.05;30.75;;;;;;;;;;5002919;28;20091;-77
2022/11/30 11:40:57;;;;;;;56.97;32.50;;;;;;;;;;5008834;28;20038;-77
2022/11/30 11:43:24;;;;;;;61.10;32.80;;;;;;;;;;5006689;28;20065;-77
2022/11/30 11:45:52;;;;;;;62.65;32.05;;;;;;;;;;5005196;28;20046;-77
2022/11/30 11:48:44;;;;;;;58.60;33.40;;;;;;;;;;4991204;28;20088;-77
2022/11/30 11:51:12;;;;;;;57.13;32.45;;;;;;;;;;5012833;28;20046;-77
2022/11/30 11:54:00;;;;;;;64.95;33.72;;;;;;;;;;5005445;28;20049;-76
2022/11/30 11:56:28;;;;;;;68.28;34.47;;;;;;;;;;5006648;28;20195;-76
2022/11/30 11:59:09;;;;;;;63.60;33.53;;;;;;;;;;5004681;28;20137;-76
2022/11/30 12:01:55;;;;;;;61.22;34.70;;;;;;;;;;4995136;28;20056;-76
2022/11/30 12:04:24;;;;;;;61.90;33.45;;;;;;;;;;5002903;28;20084;-76
2022/11/30 12:06:52;;;;;;;68.80;34.20;;;;;;;;;;4986121;28;20152;-76
2022/11/30 12:09:23;;;;;;;65.57;34.55;;;;;;;;;;5003936;28;20614;-77
2022/11/30 12:11:50;;;;;;;68.65;36.28;;;;;;;;;;4986110;28;20049;-77
2022/11/30 12:14:17;;;;;;;69.43;37.42;;;;;;;;;;4994629;28;20049;-76
2022/11/30 12:16:58;;;;;;;71.32;36.58;;;;;;;;;;4992701;28;20045;-77
2022/11/30 12:19:28;;;;;;;67.85;35.63;;;;;;;;;;5008045;28;20049;-76
2022/11/30 12:22:09;;;;;;;69.85;35.38;;;;;;;;;;4995390;28;20999;-77
2022/11/30 12:24:55;;;;;;;69.10;36.28;;;;;;;;;;5010244;28;20881;-76
2022/11/30 12:27:31;;;;;;;69.97;37.35;;;;;;;;;;5008462;28;20136;-76
2022/11/30 12:30:08;;;;;;;70.00;35.78;;;;;;;;;;4994247;28;21078;-76
2022/11/30 12:32:37;;;;;;;73.85;37.17;;;;;;;;;;4992771;28;20045;-76
2022/11/30 12:35:26;;;;;;;70.38;36.83;;;;;;;;;;5005762;28;20041;-77
2022/11/30 12:38:04;;;;;;;73.47;38.78;;;;;;;;;;5008760;28;20536;-76
2022/11/30 12:40:49;;;;;;;71.22;37.35;;;;;;;;;;5006489;28;20037;-76
2022/11/30 12:43:18;;;;;;;71.75;36.33;;;;;;;;;;5000819;28;20092;-76
2022/11/30 12:45:45;;;;;;;68.45;36.65;;;;;;;;;;5011486;28;20041;-76
2022/11/30 12:48:34;;;;;;;75.30;38.15;;;;;;;;;;5012236;28;20045;-77
2022/11/30 12:51:00;;;;;;;77.10;38.08;;;;;;;;;;5006040;28;20049;-77
2022/11/30 12:53:36;;;;;;;68.57;36.80;;;;;;;;;;4995965;28;20727;-76
2022/11/30 12:56:22;;;;;;;71.35;36.35;;;;;;;;;;5008160;28;20165;-76
2022/11/30 12:59:05;;;;;;;74.00;37.67;;;;;;;;;;4990074;28;20080;-76
2022/11/30 13:01:40;;;;;;;70.50;36.65;;;;;;;;;;5009959;28;22059;-77
2022/11/30 13:04:16;;;;;;;71.15;36.45;;;;;;;;;;5009666;28;20156;-76
2022/11/30 13:06:44;;;;;;;65.60;34.45;;;;;;;;;;5008299;28;20046;-77
2022/11/30 13:09:16;;;;;;;70.45;35.90;;;;;;;;;;5002778;28;20045;-75
2022/11/30 13:11:46;;;;;;;66.50;34.97;;;;;;;;;;5007445;28;20125;-75
2022/11/30 13:14:14;;;;;;;70.68;36.80;;;;;;;;;;5007372;28;20050;-76
2022/11/30 13:16:41;;;;;;;68.00;35.72;;;;;;;;;;4992468;28;20045;-75
2022/11/30 13:19:19;;;;;;;66.57;36.10;;;;;;;;;;5013416;28;20045;-75
2022/11/30 13:21:51;;;;;;;75.40;37.45;;;;;;;;;;5006333;28;20087;-77
2022/11/30 13:24:22;;;;;;;71.07;37.10;;;;;;;;;;5006368;28;20040;-76
2022/11/30 13:26:51;;;;;;;67.47;37.20;;;;;;;;;;5008283;28;20125;-76
2022/11/30 13:29:37;;;;;;;68.22;36.55;;;;;;;;;;5007682;28;20430;-76
2022/11/30 13:32:08;;;;;;;68.60;35.28;;;;;;;;;;5006889;28;20128;-76
2022/11/30 13:34:34;;;;;;;69.85;35.08;;;;;;;;;;4985671;28;20132;-77
2022/11/30 13:37:03;;;;;;;66.20;36.05;;;;;;;;;;5008158;28;20042;-77
2022/11/30 13:39:44;;;;;;;70.95;37.22;;;;;;;;;;4985473;28;20305;-77
2022/11/30 13:42:10;;;;;;;69.45;35.55;;;;;;;;;;5005784;28;21033;-76
2022/11/30 13:44:38;;;;;;;71.22;36.67;;;;;;;;;;5006297;28;20042;-76
2022/11/30 13:47:05;;;;;;;74.13;37.50;;;;;;;;;;5006423;28;20132;-76
2022/11/30 13:49:35;;;;;;;72.20;37.90;;;;;;;;;;5004802;28;20041;-76
2022/11/30 13:52:02;;;;;;;78.00;38.42;;;;;;;;;;5007603;28;20042;-77
2022/11/30 13:54:43;;;;;;;75.47;40.40;;;;;;;;;;4996183;28;20432;-76
2022/11/30 13:57:19;;;;;;;74.72;37.63;;;;;;;;;;5005995;28;20041;-76
2022/11/30 13:59:46;;;;;;;75.20;37.78;;;;;;;;;;5008936;28;20077;-76
2022/11/30 14:02:43;;;;;;;81.00;38.75;;;;;;;;;;5009386;28;20050;-76
2022/11/30 14:05:18;;;;;;;74.00;37.97;;;;;;;;;;5004727;28;20057;-77
2022/11/30 14:07:50;;;;;;;93.15;51.05;;;;;;;;;;4993644;28;20049;-74
2022/11/30 14:10:28;;;;;;;73.45;37.42;;;;;;;;;;5009805;28;20096;-73
2022/11/30 14:12:57;;;;;;;74.32;37.92;;;;;;;;;;5010453;28;20140;-73
2022/11/30 14:15:49;;;;;;;64.68;35.10;;;;;;;;;;5010608;28;20064;-74
2022/11/30 14:18:22;;;;;;;74.32;36.83;;;;;;;;;;5012939;28;20056;-74
2022/11/30 14:20:51;;;;;;;71.05;37.58;;;;;;;;;;4994869;28;20041;-74
2022/11/30 14:23:22;;;;;;;74.72;36.15;;;;;;;;;;5015595;28;20048;-74
2022/11/30 14:25:53;;;;;;;69.90;37.30;;;;;;;;;;5012919;28;20676;-75
2022/11/30 14:28:22;;;;;;;75.90;39.30;;;;;;;;;;5016693;28;20081;-74
2022/11/30 14:30:48;;;;;;;76.10;38.67;;;;;;;;;;5021232;28;20084;-74